Time;durP1;ratioP1;P1;durP2;ratioP2;P2;SDS_P1;SDS_P2;PMS_P1;PMS_P2;Temp;Humidity;BMP_temperature;BMP_pressure;BME280_temperature;BME280_humidity;BME280_pressure;Samples;Min_cycle;Max_cycle;Signal;HPM_P1;HPM_P2
2023/10/16 00:00:30;;;;;;;0.88;0.73;;;3.40;52.00;;;;;;5084522;28;20044;-89
2023/10/16 00:03:01;;;;;;;0.70;0.70;;;3.40;1.00;;;;;;5084181;28;20048;-89
2023/10/16 00:05:31;;;;;;;0.82;0.60;;;3.40;1.00;;;;;;5085706;28;20040;-89
2023/10/16 00:08:08;;;;;;;1.45;0.80;;;3.40;1.00;;;;;;5085881;28;20047;-89
2023/10/16 00:10:35;;;;;;;1.10;0.80;;;3.40;1.00;;;;;;5085535;28;20048;-89
2023/10/16 00:13:11;;;;;;;0.65;0.65;;;3.40;1.00;;;;;;5069247;28;20059;-89
2023/10/16 00:15:49;;;;;;;1.40;0.90;;;3.30;1.00;;;;;;5084810;28;20110;-89
2023/10/16 00:18:18;;;;;;;1.25;0.82;;;3.30;99.90;;;;;;5088459;28;20157;-88
2023/10/16 00:20:45;;;;;;;0.63;0.60;;;3.10;1.00;;;;;;5089449;28;20055;-88
2023/10/16 00:23:11;;;;;;;1.42;0.80;;;3.10;7.80;;;;;;5072086;28;20063;-88
2023/10/16 00:25:39;;;;;;;1.45;0.90;;;3.20;99.90;;;;;;5073040;28;20522;-87
2023/10/16 00:28:10;;;;;;;0.82;0.75;;;3.10;99.90;;;;;;5063554;28;20485;-88
2023/10/16 00:30:38;;;;;;;1.27;0.70;;;3.10;1.00;;;;;;5087268;28;20036;-88
2023/10/16 00:33:13;;;;;;;0.68;0.68;;;3.10;15.20;;;;;;5071129;28;20051;-89
2023/10/16 00:35:50;;;;;;;1.33;0.82;;;3.10;1.00;;;;;;5090742;28;20101;-90
2023/10/16 00:38:19;;;;;;;0.70;0.60;;;3.10;1.00;;;;;;5089823;28;20048;-89
2023/10/16 00:41:29;;;;;;;1.20;0.70;;;3.10;4.10;;;;;;5091115;28;20104;-89
2023/10/16 00:43:36;;;;;;;1.38;0.90;;;3.00;1.00;;;;;;5084444;28;20070;-90
2023/10/16 00:46:10;;;;;;;1.00;0.85;;;2.90;1.00;;;;;;5085565;28;20051;-89
2023/10/16 00:48:39;;;;;;;1.05;0.60;;;2.90;3.90;;;;;;5086693;28;20477;-89
2023/10/16 00:51:08;;;;;;;0.77;0.70;;;2.90;57.90;;;;;;5068622;28;20079;-89
2023/10/16 00:53:40;;;;;;;1.83;1.00;;;2.90;99.90;;;;;;5084528;28;20059;-90
2023/10/16 00:56:09;;;;;;;1.23;0.60;;;2.90;99.90;;;;;;5067584;28;20086;-90
2023/10/16 00:58:36;;;;;;;1.05;0.80;;;2.90;99.90;;;;;;5103670;28;20051;-88
2023/10/16 01:01:09;;;;;;;1.35;0.70;;;2.90;99.90;;;;;;5105569;28;20052;-89
2023/10/16 01:03:36;;;;;;;;;;;2.90;99.90;;;;;;5106265;28;20105;-90
2023/10/16 01:06:09;;;;;;;1.15;0.77;;;2.90;99.90;;;;;;5087672;28;19934;-90
2023/10/16 01:08:42;;;;;;;0.98;0.70;;;2.80;99.90;;;;;;5088075;28;20055;-90
2023/10/16 01:11:09;;;;;;;0.98;0.80;;;2.80;99.90;;;;;;5072749;28;20453;-91
2023/10/16 01:13:38;;;;;;;1.00;0.60;;;2.70;1.00;;;;;;5084463;28;20139;-91
2023/10/16 01:16:07;;;;;;;1.00;0.70;;;2.70;1.00;;;;;;5097136;28;20105;-91
2023/10/16 01:18:34;;;;;;;1.15;0.70;;;2.70;1.00;;;;;;5090281;28;20134;-90
2023/10/16 01:21:05;;;;;;;0.52;0.40;;;2.70;1.00;;;;;;5105766;28;20047;-91
2023/10/16 01:23:34;;;;;;;0.75;0.70;;;2.70;99.90;;;;;;5088774;28;20538;-90
2023/10/16 01:26:02;;;;;;;1.65;0.80;;;2.60;99.90;;;;;;5104252;28;20234;-91
2023/10/16 01:28:30;;;;;;;1.00;0.70;;;2.70;1.00;;;;;;5071852;28;20056;-92
2023/10/16 01:30:57;;;;;;;0.57;0.57;;;2.70;99.90;;;;;;5072497;28;20079;-90
2023/10/16 01:33:24;;;;;;;0.75;0.65;;;2.60;1.00;;;;;;5090388;28;20048;-91
2023/10/16 01:35:52;;;;;;;0.70;0.70;;;2.70;1.00;;;;;;5090001;28;20490;-91
2023/10/16 01:38:19;;;;;;;1.08;0.50;;;2.60;99.90;;;;;;5093549;28;20048;-90
2023/10/16 01:41:04;;;;;;;0.93;0.70;;;2.60;99.90;;;;;;5093092;28;20043;-89
2023/10/16 01:43:32;;;;;;;2.58;0.70;;;2.60;1.00;;;;;;5094469;28;20105;-89
2023/10/16 01:46:09;;;;;;;1.02;0.73;;;2.60;99.90;;;;;;5093950;27;20412;-89
2023/10/16 01:48:44;;;;;;;2.78;0.60;;;2.60;99.90;;;;;;5080889;28;20051;-90
2023/10/16 01:51:19;;;;;;;1.98;0.88;;;2.50;99.90;;;;;;5104999;28;20051;-89
2023/10/16 01:53:52;;;;;;;1.63;0.70;;;2.50;99.90;;;;;;5107549;28;20051;-91
2023/10/16 01:56:21;;;;;;;1.05;0.88;;;2.50;99.90;;;;;;5123323;28;20040;-89
2023/10/16 01:58:49;;;;;;;0.75;0.68;;;2.50;99.90;;;;;;5106472;28;20082;-90
2023/10/16 02:01:19;;;;;;;0.95;0.70;;;2.50;1.00;;;;;;5085366;28;20266;-89
2023/10/16 02:03:50;;;;;;;0.85;0.60;;;2.40;99.90;;;;;;5089063;28;20071;-89
2023/10/16 02:06:18;;;;;;;1.00;0.75;;;2.50;1.00;;;;;;5073220;28;20105;-89
2023/10/16 02:08:47;;;;;;;0.70;0.60;;;2.50;1.00;;;;;;5088408;28;20173;-89
2023/10/16 02:11:16;;;;;;;2.33;0.80;;;2.50;1.00;;;;;;5089039;28;20059;-90
2023/10/16 02:13:43;;;;;;;0.90;0.70;;;2.50;1.00;;;;;;5075388;28;20102;-89
2023/10/16 02:16:12;;;;;;;1.25;0.85;;;2.50;1.00;;;;;;5072076;28;20462;-89
2023/10/16 02:18:45;;;;;;;1.25;0.80;;;2.50;99.90;;;;;;5108346;28;20147;-90
2023/10/16 02:21:13;;;;;;;0.50;0.47;;;2.40;99.90;;;;;;5094319;28;20044;-90
2023/10/16 02:23:41;;;;;;;1.50;0.70;;;2.40;99.90;;;;;;5076032;28;20284;-90
2023/10/16 02:26:08;;;;;;;0.65;0.63;;;2.30;99.90;;;;;;5072410;28;20040;-90
2023/10/16 02:28:41;;;;;;;1.00;0.80;;;2.40;99.90;;;;;;5071364;28;20447;-90
2023/10/16 02:31:14;;;;;;;0.80;0.65;;;2.40;99.90;;;;;;5089147;28;20064;-89
2023/10/16 02:34:12;;;;;;;1.00;0.60;;;2.30;99.90;;;;;;5091332;28;20131;-89
2023/10/16 02:36:31;;;;;;;0.60;0.60;;;2.30;99.90;;;;;;5087665;28;20117;-91
2023/10/16 02:38:58;;;;;;;0.98;0.75;;;2.30;99.90;;;;;;5089453;28;20044;-90
2023/10/16 02:41:26;;;;;;;0.60;0.50;;;2.30;99.90;;;;;;5075797;28;20051;-90
2023/10/16 02:43:53;;;;;;;0.70;0.68;;;2.30;99.90;;;;;;5093042;28;20052;-90
2023/10/16 02:46:21;;;;;;;0.98;0.70;;;2.30;1.00;;;;;;5109374;28;20052;-90
2023/10/16 02:48:48;;;;;;;1.20;0.65;;;2.30;1.00;;;;;;5072194;28;20470;-89
2023/10/16 02:51:16;;;;;;;0.60;0.60;;;2.30;1.00;;;;;;5072109;28;20036;-89
2023/10/16 02:53:43;;;;;;;1.00;0.70;;;2.30;1.00;;;;;;5058251;28;20051;-90
2023/10/16 02:58:54;;;;;;;0.93;0.80;;;2.20;1.00;;;;;;5107286;28;20047;-89
2023/10/16 03:01:22;;;;;;;0.77;0.65;;;2.20;1.00;;;;;;5094462;28;20405;-89
2023/10/16 03:03:49;;;;;;;0.80;0.50;;;2.20;1.00;;;;;;5077372;28;20047;-89
2023/10/16 03:06:16;;;;;;;0.77;0.52;;;2.30;1.00;;;;;;5074765;28;20486;-90
2023/10/16 03:08:49;;;;;;;1.35;0.85;;;2.30;1.00;;;;;;5071227;28;20052;-89
2023/10/16 03:11:18;;;;;;;1.75;0.90;;;2.30;1.00;;;;;;5091332;28;20074;-90
2023/10/16 03:13:47;;;;;;;1.23;0.82;;;2.20;1.00;;;;;;5087732;28;20450;-90
2023/10/16 03:16:26;;;;;;;0.93;0.68;;;2.20;1.00;;;;;;5077347;28;20175;-89
2023/10/16 03:19:04;;;;;;;0.57;0.50;;;2.20;1.00;;;;;;5091418;28;20120;-89
2023/10/16 03:21:34;;;;;;;0.55;0.52;;;2.20;1.00;;;;;;5087813;28;20075;-89
2023/10/16 03:24:01;;;;;;;0.98;0.50;;;2.20;1.00;;;;;;5071814;28;20509;-89
2023/10/16 03:26:29;;;;;;;0.63;0.43;;;2.20;99.90;;;;;;5081083;28;20123;-89
2023/10/16 03:28:56;;;;;;;0.50;0.50;;;2.20;99.90;;;;;;5074602;28;20150;-90
2023/10/16 03:31:23;;;;;;;0.65;0.57;;;2.20;1.00;;;;;;5091665;28;20048;-89
2023/10/16 03:33:51;;;;;;;0.75;0.50;;;2.10;99.90;;;;;;5073950;28;20062;-90
2023/10/16 03:36:17;;;;;;;0.40;0.40;;;2.20;99.90;;;;;;5073816;28;20050;-89
2023/10/16 03:38:45;;;;;;;0.52;0.43;;;2.10;1.00;;;;;;5106997;28;20082;-88
2023/10/16 03:43:58;;;;;;;0.75;0.57;;;2.20;99.90;;;;;;5107123;28;20066;-88
2023/10/16 03:46:26;;;;;;;0.50;0.50;;;2.10;99.90;;;;;;5075743;28;20047;-88
2023/10/16 03:48:54;;;;;;;0.55;0.55;;;2.10;99.90;;;;;;5085970;28;20052;-90
2023/10/16 03:51:21;;;;;;;0.95;0.70;;;2.10;99.90;;;;;;5072786;28;20090;-89
2023/10/16 03:53:52;;;;;;;0.90;0.50;;;2.10;99.90;;;;;;5090590;28;20154;-90
2023/10/16 03:56:20;;;;;;;0.55;0.55;;;2.10;99.90;;;;;;5096948;28;20051;-88
2023/10/16 03:58:48;;;;;;;0.68;0.60;;;2.10;1.00;;;;;;5107397;28;20043;-88
2023/10/16 04:01:21;;;;;;;0.60;0.50;;;2.10;99.90;;;;;;5106921;28;20053;-89
2023/10/16 04:03:56;;;;;;;1.05;0.60;;;2.10;99.90;;;;;;5091406;28;20226;-89
2023/10/16 04:06:26;;;;;;;0.60;0.60;;;2.10;99.90;;;;;;5086433;28;20056;-89
2023/10/16 04:08:53;;;;;;;0.40;0.40;;;2.10;99.90;;;;;;5065054;28;20123;-89
2023/10/16 04:11:21;;;;;;;0.50;0.50;;;2.10;99.90;;;;;;5086577;28;20097;-89
2023/10/16 04:13:48;;;;;;;0.40;0.40;;;2.10;99.90;;;;;;5090513;28;20048;-89
2023/10/16 04:16:30;;;;;;;0.77;0.60;;;2.10;1.00;;;;;;5073365;28;20055;-89
2023/10/16 04:19:36;;;;;;;0.40;0.40;;;2.10;1.00;;;;;;5086525;28;20066;-89
2023/10/16 04:21:51;;;;;;;0.50;0.50;;;2.10;1.00;;;;;;5073955;28;20066;-90
2023/10/16 04:35:03;;;;;;;0.40;0.40;;;2.10;1.00;;;;;;5100074;28;20044;-89
2023/10/16 04:37:36;;;;;;;0.68;0.45;;;2.10;1.00;;;;;;5075912;28;20067;-88
2023/10/16 04:53:12;;;;;;;0.43;0.40;;;2.20;99.90;;;;;;5110282;28;20109;-89
2023/10/16 05:00:57;;;;;;;1.25;0.70;;;2.20;99.90;;;;;;5087890;28;20466;-89
2023/10/16 05:03:35;;;;;;;0.50;0.40;;;2.20;99.90;;;;;;5078638;28;20051;-88
2023/10/16 05:06:06;;;;;;;0.65;0.40;;;2.20;99.90;;;;;;5092290;28;20449;-91
2023/10/16 05:08:48;;;;;;;0.45;0.45;;;2.20;99.90;;;;;;5096816;28;20129;-88
2023/10/16 05:11:33;;;;;;;1.05;0.68;;;2.20;99.90;;;;;;5091334;28;20075;-88
2023/10/16 05:14:50;;;;;;;0.52;0.52;;;2.20;99.90;;;;;;5088935;28;20074;-88
2023/10/16 05:22:03;;;;;;;0.73;0.55;;;2.20;1.00;;;;;;5089568;28;20044;-87
2023/10/16 06:14:13;;;;;;;0.40;0.40;;;2.30;99.90;;;;;;5089198;28;20052;-82
2023/10/16 06:16:45;;;;;;;0.57;0.52;;;2.30;99.90;;;;;;5093457;28;20142;-81
2023/10/16 06:19:15;;;;;;;0.40;0.30;;;2.30;99.90;;;;;;5069566;28;20054;-82
2023/10/16 06:21:52;;;;;;;0.38;0.28;;;2.40;99.90;;;;;;5079213;28;20040;-81
2023/10/16 06:24:32;;;;;;;1.20;0.50;;;2.40;99.90;;;;;;5101030;28;20108;-81
2023/10/16 06:27:09;;;;;;;0.40;0.40;;;2.40;99.90;;;;;;5071381;28;20040;-81
2023/10/16 06:29:49;;;;;;;0.50;0.50;;;2.40;1.00;;;;;;5083379;28;20060;-80
2023/10/16 06:32:25;;;;;;;0.68;0.47;;;2.50;99.90;;;;;;5087530;28;20138;-81
2023/10/16 06:35:07;;;;;;;0.43;0.43;;;2.50;99.90;;;;;;5073945;28;20124;-81
2023/10/16 06:37:38;;;;;;;1.25;0.50;;;2.50;99.90;;;;;;5077059;28;20044;-81
2023/10/16 06:40:15;;;;;;;0.52;0.40;;;2.60;99.90;;;;;;5064367;28;20052;-81
2023/10/16 06:42:46;;;;;;;0.65;0.50;;;2.60;99.90;;;;;;5094624;28;20162;-81
2023/10/16 06:45:22;;;;;;;0.60;0.50;;;2.70;99.90;;;;;;5090526;28;20058;-81
2023/10/16 06:47:49;;;;;;;0.52;0.50;;;2.70;99.90;;;;;;5091474;28;20409;-81
2023/10/16 06:53:03;;;;;;;0.43;0.40;;;2.70;99.90;;;;;;5068919;28;20058;-82
2023/10/16 06:55:30;;;;;;;0.45;0.45;;;2.80;99.90;;;;;;5066869;28;20451;-82
2023/10/16 06:57:57;;;;;;;0.40;0.40;;;2.80;99.50;;;;;;5096951;28;20457;-82
2023/10/16 07:00:27;;;;;;;0.75;0.50;;;2.80;98.00;;;;;;5049971;28;20048;-81
2023/10/16 07:02:55;;;;;;;0.30;0.30;;;2.90;53.20;;;;;;5057123;28;20055;-81
2023/10/16 07:05:42;;;;;;;0.43;0.40;;;2.90;79.70;;;;;;5104041;28;20043;-81
2023/10/16 07:08:17;;;;;;;0.35;0.35;;;3.00;89.20;;;;;;5088564;28;20113;-81
2023/10/16 07:10:49;;;;;;;0.50;0.50;;;3.10;43.70;;;;;;5089411;28;20079;-81
2023/10/16 07:13:28;;;;;;;0.60;0.50;;;3.10;1.00;;;;;;5071704;28;20047;-82
2023/10/16 07:15:59;;;;;;;0.50;0.50;;;3.20;1.00;;;;;;5082275;28;20150;-81
2023/10/16 07:18:27;;;;;;;0.28;0.28;;;3.20;12.20;;;;;;5087487;28;20453;-79
2023/10/16 07:23:34;;;;;;;0.75;0.52;;;3.40;1.00;;;;;;5087526;28;20497;-81
2023/10/16 07:26:03;;;;;;;0.50;0.50;;;3.50;2.20;;;;;;5064945;28;20477;-81
2023/10/16 07:28:31;;;;;;;0.40;0.40;;;3.50;1.00;;;;;;5093162;28;20457;-81
2023/10/16 07:30:59;;;;;;;0.75;0.50;;;3.60;1.00;;;;;;5071729;28;20047;-81
2023/10/16 07:33:27;;;;;;;0.50;0.50;;;3.70;99.90;;;;;;5073300;28;20120;-82
2023/10/16 07:35:55;;;;;;;0.85;0.68;;;3.70;99.90;;;;;;5110138;28;20063;-82
2023/10/16 07:38:23;;;;;;;0.50;0.50;;;3.80;99.90;;;;;;5090191;28;20100;-82
2023/10/16 07:40:54;;;;;;;0.90;0.57;;;3.90;99.90;;;;;;5105008;28;20162;-82
2023/10/16 07:43:29;;;;;;;0.57;0.50;;;3.90;99.90;;;;;;5092582;28;20047;-83
2023/10/16 07:46:16;;;;;;;0.55;0.47;;;4.00;99.90;;;;;;5074923;28;20051;-82
2023/10/16 07:48:52;;;;;;;0.40;0.40;;;4.10;99.90;;;;;;5105896;28;20044;-81
2023/10/16 07:51:20;;;;;;;0.50;0.50;;;4.10;39.10;;;;;;5090874;28;20044;-82
2023/10/16 07:53:48;;;;;;;0.40;0.40;;;4.20;5.80;;;;;;5093327;28;20086;-82
2023/10/16 07:56:19;;;;;;;0.40;0.40;;;4.30;1.00;;;;;;5061410;28;20052;-82
2023/10/16 07:58:49;;;;;;;0.30;0.30;;;4.40;1.00;;;;;;5060012;28;20636;-81
2023/10/16 08:01:17;;;;;;;0.57;0.57;;;4.50;1.00;;;;;;5073553;28;20039;-82
2023/10/16 08:03:48;;;;;;;1.35;0.40;;;4.50;99.90;;;;;;5085282;28;20670;-83
2023/10/16 08:06:23;;;;;;;0.77;0.57;;;4.70;99.90;;;;;;5054426;28;20290;-83
2023/10/16 08:11:42;;;;;;;0.50;0.50;;;4.80;99.90;;;;;;5084101;28;20075;-81
2023/10/16 08:14:10;;;;;;;0.73;0.57;;;4.90;99.90;;;;;;5063634;28;20039;-81
2023/10/16 08:16:39;;;;;;;0.50;0.50;;;4.90;99.90;;;;;;5084061;28;20105;-81
2023/10/16 08:19:25;;;;;;;1.33;0.70;;;5.00;99.90;;;;;;5070130;28;20044;-82
2023/10/16 08:21:56;;;;;;;0.40;0.40;;;5.10;99.90;;;;;;5085411;28;20052;-81
2023/10/16 08:24:24;;;;;;;0.95;0.70;;;5.20;99.90;;;;;;5079624;28;20051;-82
2023/10/16 08:26:52;;;;;;;0.82;0.52;;;5.30;92.10;;;;;;5070912;28;20159;-81
2023/10/16 08:29:20;;;;;;;0.93;0.77;;;5.40;34.60;;;;;;5075708;28;20115;-82
2023/10/16 08:32:27;;;;;;;0.60;0.50;;;5.50;20.10;;;;;;5076418;28;20129;-81
2023/10/16 08:34:40;;;;;;;0.77;0.43;;;5.60;1.00;;;;;;5088424;28;20537;-82
2023/10/16 08:37:11;;;;;;;0.47;0.47;;;5.70;1.00;;;;;;5097174;28;20048;-82
2023/10/16 08:39:44;;;;;;;0.40;0.40;;;5.80;1.00;;;;;;5075364;28;20474;-82
2023/10/16 08:42:18;;;;;;;0.73;0.60;;;5.90;1.00;;;;;;5061967;28;20135;-82
2023/10/16 08:44:51;;;;;;;0.50;0.50;;;5.90;1.00;;;;;;5069731;28;20137;-83
2023/10/16 08:47:29;;;;;;;0.60;0.57;;;6.00;99.90;;;;;;5063598;28;20048;-83
2023/10/16 08:49:56;;;;;;;0.60;0.50;;;6.10;1.00;;;;;;5071286;28;20153;-83
2023/10/16 08:52:34;;;;;;;0.43;0.40;;;6.20;1.00;;;;;;5084282;28;20047;-83
2023/10/16 08:55:14;;;;;;;0.73;0.60;;;6.20;99.90;;;;;;5068968;28;20424;-82
2023/10/16 08:57:42;;;;;;;0.40;0.40;;;6.40;99.90;;;;;;5074184;28;20534;-83
2023/10/16 09:00:19;;;;;;;0.70;0.55;;;6.40;99.90;;;;;;5064797;28;20121;-83
2023/10/16 09:02:50;;;;;;;0.75;0.45;;;6.50;99.90;;;;;;5080687;28;20052;-84
2023/10/16 09:05:17;;;;;;;0.55;0.40;;;6.60;99.90;;;;;;5084312;28;20057;-83
2023/10/16 09:07:44;;;;;;;1.00;0.70;;;6.70;99.90;;;;;;5083981;28;20105;-83
2023/10/16 09:10:12;;;;;;;0.80;0.70;;;6.80;99.90;;;;;;5043395;28;20056;-84
2023/10/16 09:12:52;;;;;;;1.55;1.00;;;6.80;99.90;;;;;;5072360;28;20058;-83
2023/10/16 09:15:24;;;;;;;1.48;0.85;;;7.00;99.90;;;;;;5082938;28;20048;-83
2023/10/16 09:17:52;;;;;;;1.52;1.08;;;7.10;58.50;;;;;;5085233;28;20052;-83
2023/10/16 09:20:22;;;;;;;1.38;0.95;;;7.20;30.50;;;;;;5050067;28;20056;-83
2023/10/16 09:22:50;;;;;;;1.73;1.10;;;7.30;3.00;;;;;;5072006;28;20059;-84
2023/10/16 09:25:22;;;;;;;2.30;1.48;;;7.50;1.00;;;;;;5093863;28;20104;-84
2023/10/16 09:28:05;;;;;;;2.50;1.08;;;7.60;1.00;;;;;;5084024;28;20527;-82
2023/10/16 09:30:33;;;;;;;1.02;0.90;;;7.80;1.00;;;;;;5071189;28;20082;-83
2023/10/16 09:33:01;;;;;;;1.35;1.00;;;8.00;1.00;;;;;;5080980;28;20121;-83
2023/10/16 09:35:32;;;;;;;1.40;1.10;;;8.10;1.00;;;;;;5062836;28;20139;-83
2023/10/16 09:38:19;;;;;;;1.60;1.05;;;8.30;1.00;;;;;;5081524;28;20043;-83
2023/10/16 09:41:38;;;;;;;1.67;0.90;;;8.40;1.00;;;;;;5081083;28;20120;-82
2023/10/16 09:44:05;;;;;;;1.08;0.82;;;8.50;1.00;;;;;;5089615;28;20124;-83
2023/10/16 09:47:25;;;;;;;2.00;1.10;;;8.70;1.00;;;;;;5063763;28;20389;-82
2023/10/16 09:49:27;;;;;;;1.60;1.10;;;8.70;1.00;;;;;;5070281;28;20097;-83
2023/10/16 09:52:04;;;;;;;2.20;1.30;;;8.80;1.00;;;;;;5096468;28;20117;-82
2023/10/16 09:54:35;;;;;;;1.65;1.30;;;8.80;1.00;;;;;;5076861;28;20089;-83
2023/10/16 09:57:06;;;;;;;2.15;1.23;;;8.90;1.00;;;;;;5083090;28;20487;-82
2023/10/16 09:59:34;;;;;;;2.65;1.40;;;9.10;1.00;;;;;;5079797;28;20044;-86
2023/10/16 10:02:05;;;;;;;2.20;1.52;;;9.10;1.00;;;;;;5070164;28;20044;-82
2023/10/16 10:04:35;;;;;;;1.83;1.20;;;9.10;1.00;;;;;;5105419;28;20396;-83
2023/10/16 10:07:13;;;;;;;2.42;1.42;;;9.20;1.00;;;;;;5089658;28;20387;-82
2023/10/16 10:09:42;;;;;;;2.85;1.55;;;9.30;1.00;;;;;;5085907;28;20048;-83
2023/10/16 10:12:22;;;;;;;2.83;1.80;;;9.30;1.00;;;;;;5103352;28;20050;-82
2023/10/16 10:15:14;;;;;;;2.33;1.42;;;9.40;1.00;;;;;;5092081;27;20309;-83
2023/10/16 10:17:42;;;;;;;2.28;1.60;;;9.50;1.00;;;;;;5089914;28;20211;-83
2023/10/16 10:20:58;;;;;;;2.25;1.50;;;9.50;1.00;;;;;;5057274;28;20040;-82
2023/10/16 10:23:04;;;;;;;2.22;1.33;;;9.60;1.00;;;;;;5079819;28;20375;-83
2023/10/16 10:25:53;;;;;;;1.30;1.10;;;9.70;1.00;;;;;;5072216;28;20441;-83
2023/10/16 10:28:28;;;;;;;2.17;1.00;;;9.90;1.00;;;;;;5086260;28;20468;-83
2023/10/16 10:30:59;;;;;;;2.67;1.20;;;10.00;1.00;;;;;;5092891;27;20067;-83
2023/10/16 10:33:37;;;;;;;1.98;1.20;;;10.10;1.00;;;;;;5089126;28;20056;-84
2023/10/16 10:36:39;;;;;;;1.88;1.13;;;10.30;1.00;;;;;;5088485;28;20101;-84
2023/10/16 10:45:17;;;;;;;1.48;1.15;;;10.70;1.00;;;;;;5078768;28;20097;-84
2023/10/16 10:47:45;;;;;;;1.70;1.30;;;10.90;1.00;;;;;;5078231;28;20140;-83
2023/10/16 10:50:14;;;;;;;1.75;1.30;;;11.20;1.00;;;;;;5080584;28;20059;-82
2023/10/16 10:52:43;;;;;;;1.75;1.00;;;11.40;1.00;;;;;;5083282;28;20470;-83
2023/10/16 10:55:21;;;;;;;1.38;1.00;;;11.60;1.00;;;;;;5087650;28;20056;-83
2023/10/16 10:57:55;;;;;;;1.77;1.45;;;11.80;1.00;;;;;;5069355;28;20052;-83
2023/10/16 11:00:43;;;;;;;1.52;1.05;;;12.00;1.00;;;;;;5078154;28;20170;-83
2023/10/16 11:03:22;;;;;;;2.00;1.20;;;12.10;1.00;;;;;;5070099;28;20508;-81
2023/10/16 11:05:50;;;;;;;1.20;1.10;;;12.20;1.00;;;;;;5068384;28;20056;-83
2023/10/16 11:08:25;;;;;;;1.63;1.20;;;12.30;1.00;;;;;;5089909;28;20064;-82
2023/10/16 11:10:52;;;;;;;2.05;1.10;;;12.30;1.00;;;;;;5068098;28;20052;-81
2023/10/16 11:13:21;;;;;;;2.20;1.35;;;12.40;1.00;;;;;;5054164;28;20044;-82
2023/10/16 11:15:54;;;;;;;2.28;1.20;;;12.40;1.00;;;;;;5082950;28;20091;-81
2023/10/16 11:18:22;;;;;;;1.30;1.00;;;12.50;1.00;;;;;;5088931;28;20135;-82
2023/10/16 11:20:52;;;;;;;1.05;0.90;;;12.70;1.00;;;;;;5077549;28;20059;-81
2023/10/16 11:23:21;;;;;;;1.20;0.98;;;12.70;1.00;;;;;;5065557;28;20044;-82
2023/10/16 11:25:52;;;;;;;1.75;0.90;;;12.70;1.00;;;;;;5058652;28;20076;-82
2023/10/16 11:28:28;;;;;;;1.85;0.85;;;12.80;1.00;;;;;;5079063;28;20048;-82
2023/10/16 11:30:56;;;;;;;0.77;0.70;;;12.90;1.00;;;;;;5075331;28;20183;-81
2023/10/16 11:33:27;;;;;;;1.00;0.60;;;13.20;1.00;;;;;;5083035;28;20497;-82
2023/10/16 11:36:02;;;;;;;0.90;0.70;;;13.40;1.00;;;;;;5097500;28;20577;-82
2023/10/16 11:38:34;;;;;;;0.63;0.50;;;13.50;1.00;;;;;;5095775;28;20058;-81
2023/10/16 11:41:05;;;;;;;0.65;0.43;;;13.60;1.00;;;;;;5093773;28;20766;-82
2023/10/16 11:43:37;;;;;;;1.02;0.75;;;13.60;1.00;;;;;;5069213;28;20093;-82
2023/10/16 11:46:24;;;;;;;0.85;0.50;;;13.70;1.00;;;;;;5091994;28;20215;-82
2023/10/16 11:48:56;;;;;;;1.02;0.70;;;13.70;1.00;;;;;;5071561;28;20075;-83
2023/10/16 11:51:26;;;;;;;1.45;0.80;;;13.80;1.00;;;;;;5089085;28;20184;-82
2023/10/16 11:54:02;;;;;;;0.75;0.60;;;13.90;1.00;;;;;;5085242;28;20096;-82
2023/10/16 11:56:34;;;;;;;0.82;0.60;;;14.10;1.00;;;;;;5093472;28;20394;-82
2023/10/16 11:59:03;;;;;;;0.77;0.55;;;14.40;1.00;;;;;;5086323;28;20061;-82
2023/10/16 12:01:30;;;;;;;0.70;0.57;;;14.60;1.00;;;;;;5097174;28;20052;-82
2023/10/16 12:04:21;;;;;;;2.15;1.60;;;14.70;1.00;;;;;;5101591;28;20405;-82
2023/10/16 12:06:48;;;;;;;2.42;1.60;;;14.60;1.00;;;;;;5083208;28;20378;-82
2023/10/16 12:09:22;;;;;;;1.70;1.17;;;14.50;1.00;;;;;;5087034;28;20075;-82
2023/10/16 12:11:50;;;;;;;1.30;0.93;;;14.60;1.00;;;;;;5079244;28;20645;-81
2023/10/16 12:14:22;;;;;;;1.70;1.20;;;14.50;1.00;;;;;;5084414;28;20054;-82
2023/10/16 12:16:49;;;;;;;1.45;0.90;;;14.40;1.00;;;;;;5080992;28;20581;-81
2023/10/16 12:19:16;;;;;;;1.05;0.70;;;14.30;1.00;;;;;;5075359;28;20504;-81
2023/10/16 12:21:44;;;;;;;0.60;0.55;;;14.30;1.00;;;;;;5068368;28;20055;-82
2023/10/16 12:24:11;;;;;;;1.45;0.82;;;14.10;1.00;;;;;;5083063;28;20130;-82
2023/10/16 12:26:42;;;;;;;0.60;0.55;;;14.00;1.00;;;;;;5082747;28;20137;-82
2023/10/16 12:29:09;;;;;;;0.75;0.68;;;13.90;1.00;;;;;;5100045;28;20055;-77
2023/10/16 12:31:36;;;;;;;0.50;0.50;;;14.00;1.00;;;;;;5079520;28;20051;-77
2023/10/16 12:34:03;;;;;;;1.10;0.60;;;14.00;1.00;;;;;;5100867;28;20047;-77
2023/10/16 12:36:31;;;;;;;0.77;0.60;;;14.00;1.00;;;;;;5070402;28;20047;-78
2023/10/16 12:38:59;;;;;;;0.73;0.60;;;14.00;1.00;;;;;;5085497;28;20464;-77
2023/10/16 12:41:26;;;;;;;1.30;0.80;;;14.00;1.00;;;;;;5086681;28;20090;-78
2023/10/16 12:43:53;;;;;;;1.10;0.60;;;14.00;1.00;;;;;;5047099;28;20054;-78
2023/10/16 12:46:20;;;;;;;1.20;0.88;;;14.00;1.00;;;;;;5090012;28;20265;-84
2023/10/16 12:48:47;;;;;;;0.68;0.60;;;14.10;1.00;;;;;;5061971;28;20044;-86
2023/10/16 12:51:15;;;;;;;1.05;0.65;;;14.00;1.00;;;;;;5092479;28;20531;-84
2023/10/16 12:53:42;;;;;;;0.80;0.55;;;14.00;1.00;;;;;;5069651;28;20128;-87
2023/10/16 12:56:12;;;;;;;0.82;0.65;;;14.10;1.00;;;;;;5101633;28;20056;-85
2023/10/16 12:58:46;;;;;;;1.48;0.93;;;14.10;1.00;;;;;;5102851;28;20109;-86
2023/10/16 13:01:15;;;;;;;1.92;0.93;;;14.00;1.00;;;;;;5106389;28;20051;-86
2023/10/16 13:03:45;;;;;;;1.05;0.70;;;14.00;1.00;;;;;;5106540;28;20131;-86
2023/10/16 13:06:14;;;;;;;0.90;0.60;;;14.00;1.00;;;;;;5071922;28;20509;-86
2023/10/16 13:08:42;;;;;;;0.52;0.45;;;14.00;1.00;;;;;;5101048;28;20074;-85
2023/10/16 13:11:10;;;;;;;1.25;0.80;;;14.00;1.00;;;;;;5082181;28;20055;-85
2023/10/16 13:13:36;;;;;;;1.02;0.57;;;13.90;1.00;;;;;;5085389;28;20083;-85
2023/10/16 13:16:06;;;;;;;0.63;0.50;;;14.00;1.00;;;;;;5086394;28;20105;-86
2023/10/16 13:18:36;;;;;;;0.60;0.60;;;14.00;1.00;;;;;;5109073;28;20048;-84
2023/10/16 13:21:15;;;;;;;0.63;0.63;;;13.90;1.00;;;;;;5116703;28;20122;-85
2023/10/16 13:23:42;;;;;;;0.85;0.50;;;13.80;1.00;;;;;;5113455;28;20051;-85
2023/10/16 13:26:14;;;;;;;0.75;0.52;;;13.80;1.00;;;;;;5097001;28;20492;-86
2023/10/16 13:28:42;;;;;;;0.50;0.40;;;13.80;1.00;;;;;;5112513;28;20069;-86
2023/10/16 13:31:10;;;;;;;0.90;0.65;;;13.80;1.00;;;;;;5112245;28;20409;-86
2023/10/16 13:33:41;;;;;;;0.70;0.40;;;13.80;1.00;;;;;;5111525;28;20047;-87
2023/10/16 13:36:11;;;;;;;1.35;0.60;;;13.80;1.00;;;;;;5107838;28;20734;-86
2023/10/16 13:38:39;;;;;;;0.77;0.60;;;13.80;1.00;;;;;;5108776;28;20052;-87
2023/10/16 13:41:18;;;;;;;0.98;0.70;;;13.70;1.00;;;;;;5093644;28;20541;-86
2023/10/16 13:43:46;;;;;;;2.25;0.70;;;13.70;1.00;;;;;;5095038;28;20089;-87
2023/10/16 13:46:14;;;;;;;0.73;0.57;;;13.60;1.00;;;;;;5076237;28;20055;-86
2023/10/16 13:48:45;;;;;;;2.00;0.70;;;13.60;1.00;;;;;;5093328;28;20076;-86
2023/10/16 13:51:14;;;;;;;0.98;0.73;;;13.60;1.00;;;;;;5093907;28;20151;-86
2023/10/16 13:53:42;;;;;;;1.02;0.60;;;13.70;1.00;;;;;;5109508;28;20047;-86
2023/10/16 13:56:11;;;;;;;0.63;0.50;;;13.60;1.00;;;;;;5092403;28;20073;-86
2023/10/16 13:58:38;;;;;;;1.80;0.70;;;13.60;1.00;;;;;;5089181;28;20097;-85
2023/10/16 14:01:05;;;;;;;1.77;1.00;;;13.50;1.00;;;;;;5069656;28;20059;-87
2023/10/16 14:03:33;;;;;;;0.88;0.70;;;13.50;1.00;;;;;;5070846;28;20048;-85
2023/10/16 14:06:00;;;;;;;0.70;0.70;;;13.40;1.00;;;;;;5074136;28;20047;-86
2023/10/16 14:08:30;;;;;;;1.13;0.60;;;13.40;1.00;;;;;;5108256;28;20881;-85
2023/10/16 14:10:57;;;;;;;0.38;0.20;;;13.40;1.00;;;;;;5108611;28;20047;-85
2023/10/16 14:13:28;;;;;;;0.40;0.30;;;13.50;1.00;;;;;;5075459;28;20044;-84
2023/10/16 14:16:11;;;;;;;3.13;0.68;;;13.60;1.00;;;;;;5092290;28;20063;-85
2023/10/16 14:18:58;;;;;;;1.23;0.80;;;13.60;1.00;;;;;;5096956;28;20047;-83
2023/10/16 14:21:26;;;;;;;1.40;0.70;;;13.60;1.00;;;;;;5085328;28;21505;-83
2023/10/16 14:23:53;;;;;;;1.52;0.82;;;13.60;1.00;;;;;;5089700;28;20330;-83
2023/10/16 14:26:24;;;;;;;0.65;0.60;;;13.60;1.00;;;;;;5081349;28;20557;-84
2023/10/16 14:28:52;;;;;;;0.60;0.57;;;13.70;1.00;;;;;;5092667;28;20131;-84
2023/10/16 14:31:24;;;;;;;1.13;0.77;;;13.70;1.00;;;;;;5091699;28;20098;-84
2023/10/16 14:33:53;;;;;;;2.28;1.13;;;13.70;1.00;;;;;;5081038;28;20086;-83
2023/10/16 14:36:25;;;;;;;1.33;0.80;;;13.60;1.00;;;;;;5102939;28;20096;-84
2023/10/16 14:38:54;;;;;;;1.20;1.02;;;13.60;1.00;;;;;;5095789;28;20441;-84
2023/10/16 14:41:23;;;;;;;1.45;0.82;;;13.60;1.00;;;;;;5087962;28;20056;-84
2023/10/16 14:43:50;;;;;;;1.40;0.80;;;13.60;1.00;;;;;;5084139;28;20405;-83
2023/10/16 14:46:22;;;;;;;2.30;1.27;;;13.70;1.00;;;;;;5072387;28;20063;-84
2023/10/16 14:48:50;;;;;;;1.35;0.90;;;13.70;1.00;;;;;;5079766;28;20100;-84
2023/10/16 14:51:20;;;;;;;1.58;0.85;;;13.60;1.00;;;;;;5077312;28;20044;-84
2023/10/16 14:53:50;;;;;;;1.90;0.90;;;13.60;1.00;;;;;;5090060;28;20459;-83
2023/10/16 14:56:18;;;;;;;1.38;0.80;;;13.60;1.00;;;;;;5090368;28;20124;-83
2023/10/16 14:58:47;;;;;;;1.35;0.90;;;13.50;1.00;;;;;;5086676;28;20052;-83
2023/10/16 15:01:16;;;;;;;0.90;0.60;;;13.50;1.00;;;;;;5089992;28;20076;-83
2023/10/16 15:03:44;;;;;;;1.83;0.98;;;13.40;1.00;;;;;;5086710;28;20070;-84
2023/10/16 15:06:13;;;;;;;1.45;1.00;;;13.40;1.00;;;;;;5102256;28;20130;-84